Latest Weather Observations for Moss Vale

IDN60801

Issued at 8:11 pm EDT Tuesday 31 March 2015 (issued every 30 minutes, with the page automatically refreshed every 10 minutes)

About weather observations | Map of weather stations | Latest weather observations for NSW | Other Formats
Station Details ID: 068239 Name: MOSS VALE AWS Lat: -34.53 Lon: 150.42 Height: 678.4 m
Data from the previous 72 hours. | See also: Recent months at Moss Vale
Date/Time
EDT
Temp
°C
App
Temp
°C
Dew
Point
Rel
Hum
%
Delta-T
°C
Wind Press
QNH
hPa
Press
MSL
hPa
Rain
since 9 am
mm
Dir
 
Spd
km/h
Gust
km/h
Spd
kts
Gust
kts
31/08:00pm 13.8 12.5 12.5 92 0.7 NE 11 15 6 8 1027.0 1024.9 0.0
31/07:30pm 14.2 12.5 12.6 90 0.9 NE 13 17 7 9 1026.9 1024.8 0.0
31/07:00pm 14.8 13.2 12.7 87 1.2 NE 13 17 7 9 1026.6 1024.5 0.0
31/06:30pm 15.9 14.4 13.0 83 1.7 NE 13 19 7 10 1026.6 1024.5 0.0
31/06:00pm 16.8 14.1 12.9 78 2.2 ENE 19 30 10 16 1026.6 1024.5 0.0
31/05:30pm 16.5 15.3 12.8 79 2.1 E 11 15 6 8 1026.6 1024.5 0.0
31/05:04pm 17.3 15.4 13.0 76 2.5 E 15 20 8 11 1026.5 1024.4 0.0
31/05:00pm 17.7 16.4 13.8 78 2.3 E 13 19 7 10 1026.6 1024.5 0.0
31/04:51pm 17.2 16.3 13.7 80 2.0 E 11 15 6 8 1026.6 1024.5 0.0
31/04:30pm 17.1 16.4 14.4 84 1.6 E 11 17 6 9 1026.7 1024.6 0.0
31/04:00pm 16.7 15.4 13.6 82 1.8 ESE 13 19 7 10 1026.9 1024.8 0.0
31/03:38pm 16.8 14.2 13.7 82 1.8 E 20 28 11 15 1027.0 1024.9 0.0
31/03:30pm 16.9 14.8 13.6 81 1.9 ESE 17 24 9 13 1027.0 1024.9 0.0
31/03:26pm 16.9 14.4 13.6 81 1.9 ESE 19 28 10 15 1027.1 1025.0 0.0
31/03:00pm 18.1 16.1 13.8 76 2.5 E 17 24 9 13 1027.1 1025.0 0.0
31/02:30pm 17.9 16.0 13.0 73 2.8 E 15 19 8 10 1027.2 1025.2 0.0
31/02:00pm 18.5 17.1 14.4 77 2.4 ESE 15 19 8 10 1027.4 1025.3 0.0
31/01:30pm 17.9 14.7 13.2 74 2.7 ESE 22 28 12 15 1027.9 1025.8 0.0
31/01:00pm 18.3 15.3 11.8 66 3.7 ESE 19 28 10 15 1028.0 1025.9 0.0
31/12:30pm 18.3 15.7 13.2 72 3.0 ESE 19 24 10 13 1028.2 1026.1 0.0
31/12:00pm 18.5 16.1 12.7 69 3.3 ESE 17 24 9 13 1028.7 1026.7 0.0
31/11:30am 18.4 15.7 12.8 70 3.2 ESE 19 26 10 14 1028.9 1026.8 0.0
31/11:00am 17.8 16.3 14.3 80 2.1 SE 15 22 8 12 1029.1 1027.0 0.0
31/10:26am 16.9 15.8 14.2 84 1.6 ESE 13 20 7 11 1029.2 1027.1 0.0
31/10:00am 15.6 14.2 13.4 87 1.3 ESE 13 17 7 9 1029.0 1026.9 0.0
31/09:30am 14.7 14.8 14.4 98 0.2 ESE 7 11 4 6 1028.7 1026.7 0.0
31/09:00am 12.8 12.3 12.5 98 0.2 E 7 9 4 5 1028.6 1026.6 0.2
31/08:30am 11.6 12.0 11.3 98 0.2 CALM 0 0 0 0 1028.2 1026.1 0.2
31/08:00am 10.3 10.4 10.0 98 0.2 CALM 0 0 0 0 1027.9 1025.8 0.2
31/07:30am 9.3 8.3 9.0 98 0.2 N 4 7 2 4 1027.5 1025.4 0.2
31/07:00am 8.4 7.9 8.0 97 0.2 CALM 0 0 0 0 1027.1 1025.0 0.2
31/06:30am 8.4 7.9 8.0 97 0.2 CALM 0 2 0 1 1026.9 1024.8 0.2
31/06:00am 8.1 6.4 7.7 97 0.2 NNW 6 7 3 4 1026.7 1024.6 0.2
31/05:43am 8.3 6.5 7.9 97 0.2 SW 7 7 4 4 1026.5 1024.4 0.2
31/05:30am 8.1 6.8 7.7 97 0.2 SW 4 7 2 4 1026.4 1024.3 0.2
31/05:01am 9.1 8.8 8.6 97 0.3 CALM 0 0 0 0 1026.5 1024.4 0.2
31/05:00am 9.2 8.9 8.7 97 0.3 CALM 0 0 0 0 1026.5 1024.4 0.2
31/04:30am 9.1 8.8 8.5 96 0.3 CALM 0 0 0 0 1026.5 1024.4 0.2
31/04:23am 9.0 8.6 8.4 96 0.3 CALM 0 0 0 0 1026.6 1024.5 0.2
31/04:00am 10.1 10.0 9.6 97 0.3 CALM 0 0 0 0 1026.7 1024.6 0.2
31/03:30am 9.9 9.8 9.4 97 0.3 CALM 0 0 0 0 1026.8 1024.7 0.2
31/03:00am 10.8 10.9 10.3 97 0.3 CALM 0 0 0 0 1027.0 1024.9 0.2
31/02:30am 12.0 11.3 11.5 97 0.3 SSW 6 6 3 3 1027.1 1025.0 0.2
31/02:00am 12.5 12.0 12.0 97 0.3 NE 6 7 3 4 1027.1 1025.0 0.2
31/01:30am 12.7 12.2 12.1 96 0.3 E 6 7 3 4 1027.2 1025.2 0.2
31/01:00am 13.1 13.1 12.3 95 0.4 SE 4 7 2 4 1027.2 1025.2 0.2
31/12:34am 13.8 13.6 12.9 94 0.5 SE 6 7 3 4 1027.2 1025.2 0.2
31/12:30am 13.7 13.4 12.8 94 0.5 SE 6 7 3 4 1027.2 1025.2 0.2
31/12:14am 13.7 12.9 12.8 94 0.5 SSE 9 9 5 5 1027.1 1025.0 0.2
 
Date/Time
EDT
Temp
°C
App
Temp
°C
Dew
Point
Rel
Hum
%
Delta-T
°C
Wind Press
QNH
hPa
Press
MSL
hPa
Rain
since 9 am
mm
Dir
 
Spd
km/h
Gust
km/h
Spd
kts
Gust
kts
30/11:56pm 14.1 15.0 13.0 93 0.6 CALM 0 7 0 4 1027.1 1025.0 0.2
30/11:30pm 14.5 15.2 13.4 93 0.6 ENE 2 6 1 3 1027.2 1025.2 0.2
30/11:00pm 14.2 13.7 12.8 91 0.8 ENE 7 9 4 5 1027.4 1025.3 0.2
30/10:30pm 14.5 13.9 13.5 94 0.6 ENE 9 13 5 7 1027.5 1025.4 0.2
30/10:00pm 14.9 14.4 13.9 94 0.6 NE 9 11 5 6 1027.2 1025.2 0.2
30/09:35pm 14.8 13.9 13.8 94 0.6 NE 11 13 6 7 1027.0 1024.9 0.2
30/09:30pm 15.0 13.8 14.0 94 0.6 NE 13 13 7 7 1027.0 1024.9 0.2
30/09:17pm 15.0 14.5 13.9 93 0.6 NE 9 13 5 7 1027.0 1024.9 0.2
30/09:00pm 15.1 15.0 13.8 92 0.8 NE 7 9 4 5 1026.9 1024.8 0.2
30/08:30pm 15.3 14.8 13.8 91 0.9 NE 9 13 5 7 1026.9 1024.8 0.2
30/08:00pm 15.7 13.8 14.2 91 0.9 NNE 17 20 9 11 1026.7 1024.6 0.2
30/07:30pm 15.9 15.3 13.4 85 1.4 NE 9 11 5 6 1026.2 1024.1 0.2
30/07:00pm 16.4 15.3 13.1 81 1.9 NE 11 13 6 7 1025.8 1023.6 0.2
30/06:30pm 17.1 15.7 13.4 79 2.2 NE 13 15 7 8 1025.6 1023.5 0.0
30/06:00pm 17.6 16.2 12.3 71 3.0 NE 11 15 6 8 1025.3 1023.2 0.0
30/05:30pm 18.0 16.4 11.6 66 3.6 NE 11 15 6 8 1024.9 1022.8 0.0
30/05:00pm 19.0 18.9 12.0 64 4.0 SSW 4 7 2 4 1024.6 1022.4 0.0
30/04:30pm 19.1 18.8 12.8 67 3.7 SSW 6 7 3 4 1024.5 1022.3 0.0
30/04:00pm 18.9 18.1 12.9 68 3.5 ENE 9 13 5 7 1024.4 1022.2 0.0
30/03:30pm 19.3 17.7 15.0 76 2.6 NNE 17 20 9 11 1024.6 1022.4 0.0
30/03:00pm 18.7 16.9 12.0 65 3.8 NNE 13 17 7 9 1024.6 1022.4 0.0
30/02:30pm 19.6 18.5 13.1 66 3.8 NNE 11 17 6 9 1024.6 1022.4 0.0
30/02:00pm 19.3 18.0 12.6 65 3.9 E 11 17 6 9 1024.8 1022.7 0.0
30/01:30pm 19.2 17.3 12.9 67 3.7 ENE 15 20 8 11 1025.2 1023.1 0.0
30/01:00pm 18.6 16.0 13.7 73 2.9 ENE 20 26 11 14 1025.3 1023.2 0.0
30/12:30pm 20.4 18.9 9.3 49 6.1 ESE 7 11 4 6 1025.8 1023.6 0.0
30/12:00pm 19.4 17.8 8.1 48 6.0 S 6 9 3 5 1026.0 1023.9 0.0
30/11:30am 18.4 17.3 11.9 66 3.7 S 9 11 5 6 1026.2 1024.1 0.0
30/11:00am 13.8 12.8 10.4 80 1.8 SE 6 9 3 5 1026.3 1024.2 0.0
30/10:30am 13.8 13.0 12.9 94 0.5 SE 9 11 5 6 1026.3 1024.2 0.0
30/10:00am 13.3 12.9 13.0 98 0.2 SE 7 9 4 5 1026.1 1024.0 0.0
30/09:30am 12.4 13.1 12.1 98 0.2 CALM 0 0 0 0 1026.5 1024.4 0.0
30/09:00am 11.7 11.8 11.4 98 0.2 NNW 2 7 1 4 1026.7 1024.6 0.2
30/08:57am 11.6 12.0 11.3 98 0.2 CALM 0 7 0 4 1026.7 1024.6 0.2
30/08:30am 11.1 10.2 10.8 98 0.2 WNW 6 13 3 7 1026.4 1024.3 0.2
30/08:00am 10.5 9.5 10.2 98 0.2 N 6 7 3 4 1026.1 1024.0 0.2
30/07:30am 10.1 9.3 9.8 98 0.2 NW 4 6 2 3 1025.8 1023.6 0.2
30/07:13am 10.1 8.8 9.8 98 0.2 WSW 7 9 4 5 1025.6 1023.5 0.2
30/07:00am 9.9 9.4 9.4 97 0.3 SW 2 9 1 5 1025.5 1023.4 0.2
30/06:30am 9.8 9.7 9.3 97 0.3 CALM 0 0 0 0 1025.0 1022.9 0.2
30/06:07am 9.7 9.5 9.2 97 0.3 CALM 0 0 0 0 1024.6 1022.4 0.2
30/06:00am 9.7 9.5 9.2 97 0.3 CALM 0 0 0 0 1024.6 1022.4 0.2
30/05:30am 9.7 9.5 9.2 97 0.3 CALM 0 0 0 0 1024.2 1022.0 0.2
30/05:00am 9.6 9.4 9.1 97 0.3 CALM 0 0 0 0 1024.0 1021.9 0.2
30/04:30am 9.6 9.4 9.1 97 0.3 CALM 0 0 0 0 1023.9 1021.8 0.2
30/04:00am 9.4 8.8 8.9 97 0.3 ENE 2 6 1 3 1024.0 1021.9 0.2
30/03:30am 9.6 9.0 9.1 97 0.3 E 2 9 1 5 1024.0 1021.9 0.2
30/03:00am 9.6 9.4 9.1 97 0.3 CALM 0 6 0 3 1024.4 1022.2 0.2
30/02:30am 10.0 8.8 9.5 97 0.3 ENE 6 7 3 4 1024.6 1022.4 0.2
30/02:00am 10.3 10.3 9.8 97 0.3 CALM 0 0 0 0 1024.8 1022.7 0.2
30/01:30am 10.3 10.3 9.8 97 0.3 CALM 0 0 0 0 1024.9 1022.8 0.2
30/01:00am 11.8 12.2 11.3 97 0.3 CALM 0 0 0 0 1025.0 1022.9 0.0
30/12:30am 11.3 11.6 10.8 97 0.3 CALM 0 0 0 0 1025.0 1022.9 0.0
30/12:00am 11.4 9.6 10.9 97 0.3 NE 11 13 6 7 1025.2 1023.1 0.0
 
Date/Time
EDT
Temp
°C
App
Temp
°C
Dew
Point
Rel
Hum
%
Delta-T
°C
Wind Press
QNH
hPa
Press
MSL
hPa
Rain
since 9 am
mm
Dir
 
Spd
km/h
Gust
km/h
Spd
kts
Gust
kts
29/11:41pm 11.3 9.5 10.8 97 0.3 NE 11 13 6 7 1025.1 1023.0 0.0
29/11:30pm 10.9 9.7 10.3 96 0.3 ENE 7 9 4 5 1025.2 1023.1 0.0
29/11:00pm 11.6 10.6 11.0 96 0.3 ENE 7 9 4 5 1025.2 1023.1 0.0
29/10:30pm 12.4 11.8 11.6 95 0.4 NNE 6 7 3 4 1025.3 1023.2 0.0
29/10:17pm 11.2 10.9 10.1 93 0.6 ESE 2 6 1 3 1025.2 1023.1 0.0
29/10:12pm 13.2 13.6 12.4 95 0.4 ESE 2 6 1 3 1025.1 1023.0 0.0
29/10:00pm 12.9 12.4 12.1 95 0.4 ESE 6 7 3 4 1025.0 1022.9 0.0
29/09:52pm 12.2 12.2 11.1 93 0.6 E 2 7 1 4 1025.0 1022.9 0.0
29/09:30pm 13.0 12.5 11.9 93 0.6 ESE 6 7 3 4 1024.7 1022.6 0.0
29/09:00pm 13.1 12.2 11.5 90 0.9 NNE 7 13 4 7 1024.4 1022.2 0.0
29/08:30pm 14.8 15.2 11.4 80 1.9 CALM 0 0 0 0 1024.2 1022.0 0.0
29/08:00pm 14.7 13.7 11.1 79 2.0 E 7 7 4 4 1023.9 1021.8 0.0
29/07:30pm 15.6 14.3 11.2 75 2.4 NNE 9 11 5 6 1023.5 1021.4 0.0
29/07:00pm 16.1 14.4 11.3 73 2.7 NNE 11 15 6 8 1023.1 1020.9 0.0
29/06:30pm 17.3 16.0 11.3 68 3.4 NE 9 11 5 6 1023.0 1020.8 0.0
29/06:00pm 18.2 16.8 12.2 68 3.4 NE 11 15 6 8 1022.8 1020.6 0.0
29/05:30pm 18.7 17.4 11.3 62 4.2 ENE 9 11 5 6 1022.6 1020.4 0.0
29/05:00pm 19.7 17.6 6.8 43 6.7 ESE 7 11 4 6 1022.3 1020.2 0.0
29/04:30pm 20.1 17.3 7.1 43 6.8 SSE 11 15 6 8 1022.6 1020.4 0.0
29/04:00pm 20.1 17.0 7.1 43 6.8 S 13 19 7 10 1022.7 1020.5 0.0
29/03:30pm 20.4 16.6 7.4 43 6.9 WSW 17 24 9 13 1022.4 1020.3 0.0
29/03:00pm 20.7 17.8 4.7 35 8.0 WNW 9 13 5 7 1022.6 1020.4 0.0
29/02:30pm 21.0 17.5 3.7 32 8.6 WNW 11 17 6 9 1022.8 1020.6 0.0
29/02:00pm 20.6 17.0 5.0 36 7.9 WNW 13 19 7 10 1023.0 1020.8 0.0
29/01:30pm 21.3 18.7 7.9 42 7.2 WNW 11 19 6 10 1023.3 1021.1 0.0
29/01:00pm 20.7 18.1 7.7 43 6.9 NW 11 19 6 10 1023.6 1021.5 0.0
29/12:30pm 19.7 15.7 5.0 38 7.4 W 15 26 8 14 1023.9 1021.8 0.0
29/12:00pm 19.6 15.4 3.7 35 7.8 NW 15 26 8 14 1024.2 1022.0 0.0
29/11:30am 18.6 15.7 8.3 51 5.5 NW 13 24 7 13 1024.4 1022.2 0.0
29/11:00am 18.2 16.6 11.5 65 3.8 NW 11 15 6 8 1024.5 1022.3 0.0
29/10:30am 17.2 14.1 11.5 69 3.2 N 19 24 10 13 1024.6 1022.4 0.0
29/10:00am 15.7 11.6 11.3 75 2.4 N 24 32 13 17 1024.6 1022.4 0.0
29/09:30am 15.0 12.2 11.4 79 2.0 N 17 24 9 13 1024.5 1022.3 0.0
29/09:00am 13.9 11.8 11.2 84 1.5 N 13 20 7 11 1024.2 1022.0 0.0
29/08:30am 12.7 12.4 11.6 93 0.6 N 4 9 2 5 1023.9 1021.8 0.0
29/08:00am 11.4 11.3 10.8 96 0.3 NNE 2 7 1 4 1023.6 1021.5 0.0
29/07:30am 10.6 10.2 9.8 95 0.4 NNE 2 7 1 4 1023.7 1021.6 0.0
29/07:00am 10.6 9.8 9.7 94 0.5 N 4 7 2 4 1023.5 1021.4 0.0
29/06:30am 10.9 9.2 10.0 94 0.5 NNE 9 17 5 9 1023.1 1020.9 0.0
29/06:00am 10.9 8.5 10.1 95 0.4 N 13 20 7 11 1022.7 1020.5 0.0
29/05:30am 10.4 9.6 9.5 94 0.5 NNW 4 7 2 4 1022.7 1020.5 0.0
29/05:00am 10.5 8.7 9.6 94 0.5 NNE 9 17 5 9 1022.7 1020.5 0.0
29/04:30am 10.7 9.6 9.8 94 0.5 NNE 6 9 3 5 1022.7 1020.5 0.0
29/04:08am 10.6 8.9 9.8 95 0.4 N 9 15 5 8 1022.8 1020.6 0.0
29/04:00am 10.4 9.0 9.6 95 0.4 NNE 7 9 4 5 1022.8 1020.6 0.0
29/03:35am 9.8 7.9 9.0 95 0.4 NNE 9 15 5 8 1023.0 1020.8 0.0
29/03:30am 10.1 8.3 9.5 96 0.3 NNE 9 15 5 8 1023.0 1020.8 0.0
29/03:00am 9.5 6.7 8.7 95 0.4 NE 13 15 7 8 1023.1 1020.9 0.0
29/02:30am 9.4 7.4 8.8 96 0.3 NNE 9 11 5 6 1023.4 1021.3 0.0
29/02:00am 9.1 7.1 8.5 96 0.3 NNE 9 11 5 6 1023.6 1021.5 0.0
29/01:30am 9.2 7.7 8.6 96 0.3 NE 6 9 3 5 1024.0 1021.9 0.0
29/01:25am 8.9 7.2 8.3 96 0.3 NE 7 11 4 6 1024.0 1021.9 0.0
29/01:00am 8.2 6.5 7.4 95 0.4 NE 6 7 3 4 1024.0 1021.9 0.0
29/12:37am 9.1 7.4 8.3 95 0.4 NNE 7 7 4 4 1024.3 1022.1 0.0
29/12:36am 9.3 7.7 8.7 96 0.3 NNE 7 7 4 4 1024.3 1022.1 0.0
29/12:30am 9.2 7.5 8.4 95 0.4 NE 7 7 4 4 1024.2 1022.0 0.0
29/12:03am 9.5 7.8 8.4 93 0.6 NNE 7 7 4 4 1024.4 1022.2 0.0
29/12:00am 9.8 8.2 8.9 94 0.5 NNE 7 7 4 4 1024.4 1022.2 0.0
 
Date/Time
EDT
Temp
°C
App
Temp
°C
Dew
Point
Rel
Hum
%
Delta-T
°C
Wind Press
QNH
hPa
Press
MSL
hPa
Rain
since 9 am
mm
Dir
 
Spd
km/h
Gust
km/h
Spd
kts
Gust
kts
28/11:30pm 9.9 8.3 8.7 92 0.6 NNE 7 9 4 5 1024.6 1022.4 0.0
28/11:00pm 10.4 8.9 9.2 92 0.6 N 7 9 4 5 1024.8 1022.7 0.0
28/10:30pm 10.0 8.5 8.6 91 0.7 NNE 6 9 3 5 1024.9 1022.8 0.0
28/10:00pm 9.9 9.6 8.8 93 0.6 CALM 0 0 0 0 1025.2 1023.1 0.0
28/09:30pm 10.3 9.3 8.9 91 0.7 NE 4 6 2 3 1025.0 1022.9 0.0
28/09:00pm 10.3 8.9 8.7 90 0.8 E 6 7 3 4 1024.6 1022.4 0.0
28/08:30pm 10.8 8.5 8.9 88 1.0 ENE 11 13 6 7 1024.4 1022.2 0.0

Other Formats:

Comma delimited format used in spreadsheet applications
http://www.bom.gov.au/fwo/IDN60801/IDN60801.94746.axf

JavaScript Object Notation format (JSON) in row-major order
http://www.bom.gov.au/fwo/IDN60801/IDN60801.94746.json